createdAt,value
2018-11-25T00:03:58.454Z,54.63
2018-11-25T00:08:02.256Z,53.02
2018-11-25T00:12:06.076Z,51.08
2018-11-25T00:16:09.793Z,51.75
2018-11-25T00:20:13.864Z,53.45
2018-11-25T00:24:17.593Z,58.58
2018-11-25T00:28:21.282Z,50.35
2018-11-25T00:32:24.995Z,52.75
2018-11-25T00:36:28.742Z,55.10
2018-11-25T00:40:32.500Z,54.87
2018-11-25T00:44:36.220Z,51.70
2018-11-25T00:48:39.977Z,50.60
2018-11-25T00:52:43.664Z,55.58
2018-11-25T00:56:47.418Z,53.75
2018-11-25T01:00:51.158Z,52.05
2018-11-25T01:04:54.919Z,55.73
2018-11-25T01:08:58.802Z,53.15
2018-11-25T01:13:02.486Z,49.58
2018-11-25T01:17:06.529Z,47.40
2018-11-25T01:21:10.268Z,47.25
2018-11-25T01:25:13.985Z,45.80
2018-11-25T01:29:17.745Z,57.25
2018-11-25T01:39:26.337Z,48.57
2018-11-25T01:43:30.058Z,48.92
2018-11-25T01:47:33.781Z,53.90
2018-11-25T01:51:37.490Z,50.48
2018-11-25T01:55:41.205Z,52.50
2018-11-25T01:59:44.961Z,56.27
2018-11-25T02:03:48.674Z,56.83
2018-11-25T02:07:52.426Z,50.52
2018-11-25T02:11:56.135Z,57.08
2018-11-25T02:15:59.832Z,56.80
2018-11-25T02:20:05.733Z,57.73
2018-11-25T02:24:09.437Z,65.17
2018-11-25T02:28:13.108Z,65.92
2018-11-25T02:32:16.873Z,64.17
2018-11-25T02:36:20.584Z,63.63
2018-11-25T02:40:24.286Z,67.70
2018-11-25T02:44:27.972Z,65.28
2018-11-25T02:48:31.683Z,67.25
2018-11-25T02:52:35.364Z,77.22
2018-11-25T02:56:39.073Z,72.12
2018-11-25T03:00:42.861Z,71.07
2018-11-25T03:04:46.537Z,71.40
2018-11-25T03:08:50.219Z,62.50
2018-11-25T03:12:54.056Z,57.15
2018-11-25T03:16:57.745Z,56.53
2018-11-25T03:21:01.433Z,62.88
2018-11-25T03:25:06.826Z,54.42
2018-11-25T03:29:10.479Z,52.13
2018-11-25T03:33:14.221Z,49.63
2018-11-25T03:37:17.895Z,48.95
2018-11-25T03:41:21.619Z,44.75
2018-11-25T03:45:25.438Z,45.17
2018-11-25T03:49:29.074Z,46.67
2018-11-25T03:53:32.808Z,42.60
2018-11-25T03:57:36.642Z,41.30
2018-11-25T04:01:40.321Z,39.92
2018-11-25T04:05:44.009Z,41.63
2018-11-25T04:09:47.741Z,37.98
2018-11-25T04:13:51.425Z,36.90
2018-11-25T04:17:55.120Z,35.87
2018-11-25T04:21:58.798Z,37.67
2018-11-25T04:26:02.573Z,36.03
2018-11-25T04:30:09.306Z,36.77
2018-11-25T04:34:13.021Z,36.85
2018-11-25T04:38:16.729Z,34.13
2018-11-25T04:42:20.466Z,32.97
2018-11-25T04:46:27.057Z,37.10
2018-11-25T04:50:30.718Z,34.83
2018-11-25T04:54:34.420Z,31.97
2018-11-25T04:58:38.174Z,31.50
2018-11-25T05:02:42.146Z,30.00
2018-11-25T05:06:45.821Z,27.15
2018-11-25T05:10:49.525Z,24.30
2018-11-25T05:14:53.258Z,25.72
2018-11-25T05:18:56.999Z,25.62
2018-11-25T05:26:37.406Z,24.30
2018-11-25T05:30:41.034Z,23.50
2018-11-25T05:34:44.701Z,22.70
2018-11-25T05:38:48.412Z,24.37
2018-11-25T05:42:52.909Z,22.32
2018-11-25T05:47:29.675Z,25.95
2018-11-25T05:51:33.363Z,23.83
2018-11-25T05:55:37.020Z,23.47
2018-11-25T05:59:40.750Z,23.57
2018-11-25T06:03:44.454Z,24.80
2018-11-25T06:07:48.181Z,26.67
2018-11-25T06:11:51.840Z,24.27
2018-11-25T06:15:55.489Z,24.82
2018-11-25T06:19:59.274Z,26.33
2018-11-25T06:24:02.972Z,24.43
2018-11-25T06:28:06.668Z,25.70
2018-11-25T06:32:10.366Z,24.43
2018-11-25T06:36:14.028Z,26.03
2018-11-25T06:40:20.412Z,24.90
2018-11-25T06:44:24.080Z,22.73
2018-11-25T06:48:27.808Z,23.22
2018-11-25T06:52:31.524Z,24.63
2018-11-25T06:56:35.290Z,24.37
2018-11-25T07:00:38.966Z,26.00
2018-11-25T07:04:42.664Z,24.57
2018-11-25T07:08:46.408Z,23.22
2018-11-25T07:12:52.454Z,27.00
2018-11-25T07:16:57.155Z,26.48
2018-11-25T07:21:00.818Z,27.58
2018-11-25T07:25:04.610Z,28.50
2018-11-25T07:31:43.882Z,26.60
2018-11-25T07:39:54.197Z,28.60
2018-11-25T07:44:30.882Z,30.35
2018-11-25T07:48:34.625Z,35.47
2018-11-25T07:52:38.324Z,31.47
2018-11-25T07:56:41.999Z,33.55
2018-11-25T08:00:45.758Z,35.28
2018-11-25T08:04:49.433Z,32.63
2018-11-25T08:08:53.478Z,34.73
2018-11-25T08:12:57.137Z,44.63
2018-11-25T08:17:00.814Z,35.75
2018-11-25T08:21:04.475Z,36.40
2018-11-25T08:25:09.614Z,35.85
2018-11-25T08:29:13.301Z,34.27
2018-11-25T08:33:17.004Z,34.48
2018-11-25T08:37:20.670Z,34.00
2018-11-25T08:41:24.421Z,30.65
2018-11-25T08:45:28.134Z,35.03
2018-11-25T08:49:31.845Z,34.23
2018-11-25T08:53:35.521Z,37.10
2018-11-25T08:57:39.331Z,37.38
2018-11-25T09:01:43.052Z,33.83
2018-11-25T09:05:46.781Z,37.38
2018-11-25T09:09:50.542Z,35.80
2018-11-25T09:13:54.221Z,37.95
2018-11-25T09:17:57.966Z,37.60
2018-11-25T09:22:01.680Z,37.63
2018-11-25T09:26:08.744Z,36.97
2018-11-25T09:30:20.181Z,37.10
2018-11-25T09:36:19.016Z,40.53
2018-11-25T09:40:23.833Z,42.90
2018-11-25T09:44:27.516Z,39.33
2018-11-25T09:48:31.168Z,39.05
2018-11-25T09:52:34.833Z,40.73
2018-11-25T09:56:38.503Z,44.55
2018-11-25T10:00:42.181Z,42.78
2018-11-25T10:04:45.852Z,44.37
2018-11-25T10:08:49.537Z,43.33
2018-11-25T10:12:53.232Z,43.05
2018-11-25T10:16:56.866Z,42.62
2018-11-25T10:21:00.529Z,44.42
2018-11-25T10:25:04.297Z,41.33
2018-11-25T10:29:07.926Z,44.40
2018-11-25T10:33:11.677Z,41.05
2018-11-25T10:37:15.361Z,41.58
2018-11-25T10:41:19.066Z,45.50
2018-11-25T10:45:23.864Z,44.95
2018-11-25T10:49:27.504Z,42.10
2018-11-25T10:53:31.195Z,52.08
2018-11-25T10:57:34.882Z,46.15
2018-11-25T11:02:01.739Z,40.12
2018-11-25T11:06:10.921Z,48.23
2018-11-25T11:10:14.662Z,43.98
2018-11-25T11:14:18.392Z,43.85
2018-11-25T11:18:22.057Z,44.20
2018-11-25T11:22:25.881Z,42.08
2018-11-25T11:26:29.605Z,42.93
2018-11-25T11:30:33.367Z,38.47
2018-11-25T11:34:37.025Z,42.17
2018-11-25T11:38:40.692Z,34.38
2018-11-25T11:42:44.382Z,34.78
2018-11-25T11:46:48.108Z,36.60
2018-11-25T11:50:52.021Z,29.30
2018-11-25T11:54:55.676Z,30.68
2018-11-25T11:58:59.343Z,27.27
2018-11-25T12:03:03.027Z,28.95
2018-11-25T12:07:06.758Z,27.65
2018-11-25T12:11:10.446Z,29.57
2018-11-25T12:15:20.208Z,33.60
2018-11-25T12:19:23.884Z,33.33
2018-11-25T12:23:27.565Z,30.27
2018-11-25T12:27:31.229Z,30.97
2018-11-25T12:31:34.888Z,32.85
2018-11-25T12:35:38.565Z,31.17
2018-11-25T12:39:42.233Z,32.57
2018-11-25T12:43:45.890Z,36.08
2018-11-25T12:47:49.561Z,36.88
2018-11-25T12:51:53.243Z,32.33
2018-11-25T12:55:56.871Z,39.13
2018-11-25T13:00:00.586Z,35.03
2018-11-25T13:04:04.305Z,39.00
2018-11-25T13:08:09.044Z,39.83
2018-11-25T13:12:12.728Z,39.70
2018-11-25T13:16:16.376Z,39.80
2018-11-25T13:20:20.060Z,42.03
2018-11-25T13:24:23.721Z,37.25
2018-11-25T13:28:27.442Z,43.60
2018-11-25T13:32:31.125Z,53.23
2018-11-25T13:36:34.770Z,52.27
2018-11-25T13:40:40.200Z,64.37
2018-11-25T13:44:44.620Z,63.13
2018-11-25T13:48:49.666Z,63.10
2018-11-25T13:52:53.598Z,63.70
2018-11-25T13:56:58.407Z,68.87
2018-11-25T14:01:03.410Z,72.70
2018-11-25T14:05:08.015Z,71.10
2018-11-25T14:09:14.255Z,74.20
2018-11-25T14:13:17.980Z,78.75
2018-11-25T14:17:21.628Z,96.33
2018-11-25T14:21:25.306Z,97.55
2018-11-25T14:25:29.012Z,102.07
2018-11-25T14:29:32.680Z,96.92
2018-11-25T14:33:36.393Z,86.57
2018-11-25T14:37:40.056Z,110.63
2018-11-25T14:41:43.715Z,102.42
2018-11-25T14:45:47.401Z,110.30
2018-11-25T14:49:51.076Z,113.35
2018-11-25T14:53:54.761Z,87.47
2018-11-25T14:57:58.475Z,121.97
2018-11-25T15:02:02.116Z,102.58
2018-11-25T15:06:05.966Z,110.90
2018-11-25T15:10:10.784Z,110.30
2018-11-25T15:14:13.476Z,104.10
2018-11-25T15:18:17.181Z,106.12
2018-11-25T15:22:20.864Z,100.17
2018-11-25T15:26:24.586Z,89.72
2018-11-25T15:30:28.292Z,93.55
2018-11-25T15:34:32.016Z,93.10
2018-11-25T15:38:35.734Z,121.62
2018-11-25T15:42:39.530Z,118.10
2018-11-25T15:46:43.244Z,119.63
2018-11-25T15:50:46.932Z,116.88
2018-11-25T15:54:50.615Z,127.55
2018-11-25T15:58:54.326Z,117.10
2018-11-25T16:02:58.005Z,132.15
2018-11-25T16:07:01.774Z,107.10
2018-11-25T16:11:06.513Z,102.00
2018-11-25T16:15:11.919Z,118.02
2018-11-25T16:19:15.633Z,122.05
2018-11-25T16:23:19.368Z,124.78
2018-11-25T16:27:23.077Z,119.70
2018-11-25T16:31:27.644Z,113.85
2018-11-25T16:35:31.488Z,98.12
2018-11-25T16:39:35.189Z,103.35
2018-11-25T16:43:38.953Z,99.60
2018-11-25T16:47:42.844Z,94.87
2018-11-25T16:51:46.660Z,99.35
2018-11-25T16:55:50.590Z,91.80
2018-11-25T16:59:54.477Z,85.45
2018-11-25T17:03:58.314Z,83.60
2018-11-25T17:12:41.049Z,86.57
2018-11-25T17:16:44.775Z,84.47
2018-11-25T17:20:48.673Z,74.58
2018-11-25T17:24:52.532Z,83.92
2018-11-25T17:28:56.364Z,82.00
2018-11-25T17:33:01.217Z,81.40
2018-11-25T17:37:05.285Z,80.45
2018-11-25T17:41:09.089Z,79.03
2018-11-25T17:45:13.638Z,83.20
2018-11-25T17:49:17.637Z,89.22
2018-11-25T17:53:21.500Z,88.10
2018-11-25T17:57:25.274Z,100.55
2018-11-25T18:01:29.205Z,103.78
2018-11-25T18:05:38.647Z,103.62
2018-11-25T18:09:36.893Z,114.42
2018-11-25T18:13:41.625Z,111.03
2018-11-25T18:17:48.991Z,128.03
2018-11-25T18:21:57.145Z,113.20
2018-11-25T18:26:01.984Z,131.07
2018-11-25T18:30:09.269Z,136.28
2018-11-25T18:34:12.947Z,134.30
2018-11-25T18:38:16.632Z,134.27
2018-11-25T18:42:20.376Z,128.85
2018-11-25T18:46:24.064Z,129.93
2018-11-25T18:50:27.778Z,129.93
2018-11-25T18:54:31.457Z,117.45
2018-11-25T18:58:35.133Z,131.60
2018-11-25T19:02:41.376Z,112.20
2018-11-25T19:06:45.090Z,106.58
2018-11-25T19:10:48.838Z,113.90
2018-11-25T19:14:52.525Z,104.10
2018-11-25T19:18:56.248Z,103.55
2018-11-25T19:23:00.197Z,108.65
2018-11-25T19:27:03.894Z,117.40
2018-11-25T19:31:07.591Z,117.93
2018-11-25T19:35:12.496Z,110.27
2018-11-25T19:39:16.225Z,104.97
2018-11-25T19:43:19.905Z,96.67
2018-11-25T19:47:23.577Z,101.35
2018-11-25T19:51:27.261Z,108.52
2018-11-25T19:55:31.163Z,110.15
2018-11-25T19:59:34.938Z,125.75
2018-11-25T20:03:38.664Z,121.10
2018-11-25T20:07:43.114Z,135.73
2018-11-25T20:11:46.810Z,127.65
2018-11-25T20:15:50.481Z,131.20
2018-11-25T20:19:54.170Z,127.33
2018-11-25T20:23:57.857Z,130.37
2018-11-25T20:28:01.565Z,111.60
2018-11-25T20:32:10.921Z,120.53
2018-11-25T20:36:14.569Z,110.75
2018-11-25T20:40:18.313Z,107.85
2018-11-25T20:44:22.004Z,104.72
2018-11-25T20:48:25.821Z,106.17
2018-11-25T20:52:34.759Z,114.63
2018-11-25T20:56:38.490Z,112.80
2018-11-25T21:00:42.979Z,114.57
2018-11-25T21:04:46.681Z,117.67
2018-11-25T21:08:50.433Z,101.62
2018-11-25T21:12:55.151Z,94.87
2018-11-25T21:16:58.778Z,108.87
2018-11-25T21:21:02.457Z,111.37
2018-11-25T21:25:11.312Z,112.30
2018-11-25T21:29:16.439Z,121.05
2018-11-25T21:33:18.850Z,131.30
2018-11-25T21:37:22.505Z,112.03
2018-11-25T21:41:26.199Z,133.82
2018-11-25T21:45:29.942Z,118.35
2018-11-25T21:49:33.611Z,118.42
2018-11-25T21:53:37.385Z,125.95
2018-11-25T21:57:41.036Z,132.97
2018-11-25T22:01:44.677Z,147.05
2018-11-25T22:05:48.383Z,144.02
2018-11-25T22:09:52.078Z,135.12
2018-11-25T22:13:55.754Z,146.83
2018-11-25T22:17:59.368Z,128.60
2018-11-25T22:22:03.034Z,134.72
2018-11-25T22:26:06.769Z,112.97
2018-11-25T22:30:17.412Z,123.07
2018-11-25T22:34:21.060Z,119.82
2018-11-25T22:38:24.738Z,115.03
2018-11-25T22:42:28.425Z,114.77
2018-11-25T22:46:32.134Z,109.25
2018-11-25T22:50:35.810Z,109.37
2018-11-25T22:54:39.466Z,98.60
2018-11-25T22:58:43.136Z,116.88
2018-11-25T23:02:46.793Z,100.20
2018-11-25T23:07:07.583Z,112.77
2018-11-25T23:11:11.309Z,108.80
2018-11-25T23:15:15.026Z,103.40
2018-11-25T23:19:18.706Z,105.00
2018-11-25T23:23:22.402Z,95.07
2018-11-25T23:27:26.109Z,99.80
2018-11-25T23:31:29.797Z,100.27
2018-11-25T23:35:34.412Z,103.25
2018-11-25T23:39:38.141Z,97.33
2018-11-25T23:43:41.798Z,100.53
2018-11-25T23:47:45.589Z,97.67
2018-11-25T23:51:49.312Z,103.42
2018-11-25T23:55:53.037Z,111.15
2018-11-25T23:59:56.712Z,103.03
